sensor_id;sensor_type;location;lat;lon;timestamp;P1;durP1;ratioP1;P2;durP2;ratioP2
5117;SDS011;2578;51.622;7.046;2023-11-19T00:00:50;22.90;;;13.10;;
5117;SDS011;2578;51.622;7.046;2023-11-19T00:03:16;21.67;;;11.70;;
5117;SDS011;2578;51.622;7.046;2023-11-19T00:05:42;21.63;;;12.10;;
5117;SDS011;2578;51.622;7.046;2023-11-19T00:08:09;21.63;;;12.13;;
5117;SDS011;2578;51.622;7.046;2023-11-19T00:10:35;21.30;;;11.60;;
5117;SDS011;2578;51.622;7.046;2023-11-19T00:13:01;27.40;;;13.67;;
5117;SDS011;2578;51.622;7.046;2023-11-19T00:15:27;21.60;;;11.50;;
5117;SDS011;2578;51.622;7.046;2023-11-19T00:17:53;20.90;;;10.90;;
5117;SDS011;2578;51.622;7.046;2023-11-19T00:20:20;21.63;;;10.90;;
5117;SDS011;2578;51.622;7.046;2023-11-19T00:22:47;22.17;;;12.17;;
5117;SDS011;2578;51.622;7.046;2023-11-19T00:25:16;24.40;;;13.20;;
5117;SDS011;2578;51.622;7.046;2023-11-19T00:27:42;26.90;;;13.40;;
5117;SDS011;2578;51.622;7.046;2023-11-19T00:30:11;33.20;;;14.27;;
5117;SDS011;2578;51.622;7.046;2023-11-19T00:32:38;23.03;;;11.63;;
5117;SDS011;2578;51.622;7.046;2023-11-19T00:35:05;21.47;;;11.67;;
5117;SDS011;2578;51.622;7.046;2023-11-19T00:37:31;21.67;;;11.77;;
5117;SDS011;2578;51.622;7.046;2023-11-19T00:39:57;22.40;;;11.50;;
5117;SDS011;2578;51.622;7.046;2023-11-19T00:42:23;36.63;;;13.07;;
5117;SDS011;2578;51.622;7.046;2023-11-19T00:44:49;21.93;;;11.80;;
5117;SDS011;2578;51.622;7.046;2023-11-19T00:47:15;25.63;;;13.40;;
5117;SDS011;2578;51.622;7.046;2023-11-19T00:49:41;24.63;;;13.23;;
5117;SDS011;2578;51.622;7.046;2023-11-19T00:52:07;25.50;;;12.97;;
5117;SDS011;2578;51.622;7.046;2023-11-19T00:54:33;21.70;;;12.00;;
5117;SDS011;2578;51.622;7.046;2023-11-19T00:56:59;22.23;;;12.37;;
5117;SDS011;2578;51.622;7.046;2023-11-19T00:59:26;30.93;;;16.43;;
5117;SDS011;2578;51.622;7.046;2023-11-19T01:01:53;33.97;;;20.10;;
5117;SDS011;2578;51.622;7.046;2023-11-19T01:04:19;25.67;;;12.67;;
5117;SDS011;2578;51.622;7.046;2023-11-19T01:06:45;26.13;;;13.30;;
5117;SDS011;2578;51.622;7.046;2023-11-19T01:09:10;20.87;;;10.90;;
5117;SDS011;2578;51.622;7.046;2023-11-19T01:11:36;23.33;;;11.47;;
5117;SDS011;2578;51.622;7.046;2023-11-19T01:14:01;23.33;;;13.10;;
5117;SDS011;2578;51.622;7.046;2023-11-19T01:16:27;23.53;;;12.50;;
5117;SDS011;2578;51.622;7.046;2023-11-19T01:18:53;26.23;;;12.70;;
5117;SDS011;2578;51.622;7.046;2023-11-19T01:21:19;22.10;;;12.03;;
5117;SDS011;2578;51.622;7.046;2023-11-19T01:23:45;30.30;;;16.27;;
5117;SDS011;2578;51.622;7.046;2023-11-19T01:26:11;21.70;;;11.30;;
5117;SDS011;2578;51.622;7.046;2023-11-19T01:28:40;22.50;;;11.83;;
5117;SDS011;2578;51.622;7.046;2023-11-19T01:31:09;33.07;;;11.47;;
5117;SDS011;2578;51.622;7.046;2023-11-19T01:33:36;24.40;;;14.60;;
5117;SDS011;2578;51.622;7.046;2023-11-19T01:36:01;20.77;;;10.23;;
5117;SDS011;2578;51.622;7.046;2023-11-19T01:38:27;33.73;;;10.60;;
5117;SDS011;2578;51.622;7.046;2023-11-19T01:40:56;23.30;;;12.20;;
5117;SDS011;2578;51.622;7.046;2023-11-19T01:43:35;20.93;;;10.37;;
5117;SDS011;2578;51.622;7.046;2023-11-19T01:46:02;20.90;;;10.43;;
5117;SDS011;2578;51.622;7.046;2023-11-19T01:48:33;20.90;;;10.73;;
5117;SDS011;2578;51.622;7.046;2023-11-19T01:51:01;29.53;;;13.23;;
5117;SDS011;2578;51.622;7.046;2023-11-19T01:53:28;21.77;;;11.07;;
5117;SDS011;2578;51.622;7.046;2023-11-19T01:55:55;21.80;;;10.83;;
5117;SDS011;2578;51.622;7.046;2023-11-19T01:58:21;21.10;;;10.90;;
5117;SDS011;2578;51.622;7.046;2023-11-19T02:00:48;26.83;;;14.10;;
5117;SDS011;2578;51.622;7.046;2023-11-19T02:03:14;22.20;;;12.07;;
5117;SDS011;2578;51.622;7.046;2023-11-19T02:05:41;22.20;;;11.90;;
5117;SDS011;2578;51.622;7.046;2023-11-19T02:08:07;23.70;;;12.63;;
5117;SDS011;2578;51.622;7.046;2023-11-19T02:10:33;22.83;;;12.00;;
5117;SDS011;2578;51.622;7.046;2023-11-19T02:12:58;29.50;;;12.13;;
5117;SDS011;2578;51.622;7.046;2023-11-19T02:15:25;24.40;;;12.93;;
5117;SDS011;2578;51.622;7.046;2023-11-19T02:17:51;23.37;;;11.83;;
5117;SDS011;2578;51.622;7.046;2023-11-19T02:20:17;22.90;;;12.87;;
5117;SDS011;2578;51.622;7.046;2023-11-19T02:22:45;27.27;;;14.73;;
5117;SDS011;2578;51.622;7.046;2023-11-19T02:25:14;27.40;;;14.03;;
5117;SDS011;2578;51.622;7.046;2023-11-19T02:27:54;22.73;;;12.30;;
5117;SDS011;2578;51.622;7.046;2023-11-19T02:30:23;24.10;;;14.43;;
5117;SDS011;2578;51.622;7.046;2023-11-19T02:32:54;25.13;;;13.10;;
5117;SDS011;2578;51.622;7.046;2023-11-19T02:35:22;23.20;;;12.90;;
5117;SDS011;2578;51.622;7.046;2023-11-19T02:37:48;22.70;;;12.77;;
5117;SDS011;2578;51.622;7.046;2023-11-19T02:40:14;22.20;;;13.20;;
5117;SDS011;2578;51.622;7.046;2023-11-19T02:42:39;24.40;;;13.47;;
5117;SDS011;2578;51.622;7.046;2023-11-19T02:45:05;24.23;;;13.73;;
5117;SDS011;2578;51.622;7.046;2023-11-19T02:47:32;25.40;;;14.53;;
5117;SDS011;2578;51.622;7.046;2023-11-19T02:49:59;25.00;;;15.13;;
5117;SDS011;2578;51.622;7.046;2023-11-19T02:52:25;26.20;;;15.40;;
5117;SDS011;2578;51.622;7.046;2023-11-19T02:54:51;22.60;;;12.47;;
5117;SDS011;2578;51.622;7.046;2023-11-19T02:57:17;26.33;;;13.70;;
5117;SDS011;2578;51.622;7.046;2023-11-19T02:59:46;25.60;;;16.10;;
5117;SDS011;2578;51.622;7.046;2023-11-19T03:02:11;22.40;;;12.63;;
5117;SDS011;2578;51.622;7.046;2023-11-19T03:04:37;25.90;;;14.10;;
5117;SDS011;2578;51.622;7.046;2023-11-19T03:07:07;24.80;;;13.83;;
5117;SDS011;2578;51.622;7.046;2023-11-19T03:09:33;22.60;;;12.53;;
5117;SDS011;2578;51.622;7.046;2023-11-19T03:12:00;23.23;;;12.60;;
5117;SDS011;2578;51.622;7.046;2023-11-19T03:14:26;25.03;;;14.00;;
5117;SDS011;2578;51.622;7.046;2023-11-19T03:16:51;24.73;;;13.80;;
5117;SDS011;2578;51.622;7.046;2023-11-19T03:19:17;33.13;;;16.23;;
5117;SDS011;2578;51.622;7.046;2023-11-19T03:21:43;31.43;;;16.27;;
5117;SDS011;2578;51.622;7.046;2023-11-19T03:24:09;23.20;;;12.90;;
5117;SDS011;2578;51.622;7.046;2023-11-19T03:26:35;23.37;;;13.30;;
5117;SDS011;2578;51.622;7.046;2023-11-19T03:29:02;48.73;;;15.27;;
5117;SDS011;2578;51.622;7.046;2023-11-19T03:31:28;23.40;;;13.27;;
5117;SDS011;2578;51.622;7.046;2023-11-19T03:33:53;24.07;;;14.40;;
5117;SDS011;2578;51.622;7.046;2023-11-19T03:36:19;23.10;;;12.97;;
5117;SDS011;2578;51.622;7.046;2023-11-19T03:38:45;23.27;;;13.13;;
5117;SDS011;2578;51.622;7.046;2023-11-19T03:41:14;25.33;;;13.60;;
5117;SDS011;2578;51.622;7.046;2023-11-19T03:43:41;31.27;;;15.10;;
5117;SDS011;2578;51.622;7.046;2023-11-19T03:46:19;24.00;;;14.13;;
5117;SDS011;2578;51.622;7.046;2023-11-19T03:48:46;30.73;;;13.67;;
5117;SDS011;2578;51.622;7.046;2023-11-19T03:51:12;27.80;;;14.40;;
5117;SDS011;2578;51.622;7.046;2023-11-19T03:53:41;25.13;;;13.03;;
5117;SDS011;2578;51.622;7.046;2023-11-19T03:56:08;25.60;;;13.67;;
5117;SDS011;2578;51.622;7.046;2023-11-19T03:58:35;23.60;;;13.00;;
5117;SDS011;2578;51.622;7.046;2023-11-19T04:01:01;27.73;;;14.17;;
5117;SDS011;2578;51.622;7.046;2023-11-19T04:03:27;24.03;;;13.90;;
5117;SDS011;2578;51.622;7.046;2023-11-19T04:05:53;26.60;;;14.10;;
5117;SDS011;2578;51.622;7.046;2023-11-19T04:08:19;31.77;;;14.73;;
5117;SDS011;2578;51.622;7.046;2023-11-19T04:10:45;24.30;;;13.83;;
5117;SDS011;2578;51.622;7.046;2023-11-19T04:13:11;25.53;;;14.67;;
5117;SDS011;2578;51.622;7.046;2023-11-19T04:15:37;26.60;;;14.70;;
5117;SDS011;2578;51.622;7.046;2023-11-19T04:18:03;27.87;;;14.33;;
5117;SDS011;2578;51.622;7.046;2023-11-19T04:20:29;24.20;;;14.47;;
5117;SDS011;2578;51.622;7.046;2023-11-19T04:22:56;22.23;;;13.20;;
5117;SDS011;2578;51.622;7.046;2023-11-19T04:25:22;23.50;;;13.30;;
5117;SDS011;2578;51.622;7.046;2023-11-19T04:27:49;27.87;;;13.53;;
5117;SDS011;2578;51.622;7.046;2023-11-19T04:30:14;23.57;;;13.53;;
5117;SDS011;2578;51.622;7.046;2023-11-19T04:32:40;23.97;;;13.30;;
5117;SDS011;2578;51.622;7.046;2023-11-19T04:35:06;26.60;;;13.17;;
5117;SDS011;2578;51.622;7.046;2023-11-19T04:37:32;23.93;;;13.50;;
5117;SDS011;2578;51.622;7.046;2023-11-19T04:39:57;28.30;;;13.80;;
5117;SDS011;2578;51.622;7.046;2023-11-19T04:42:24;42.37;;;16.40;;
5117;SDS011;2578;51.622;7.046;2023-11-19T04:44:50;22.00;;;12.60;;
5117;SDS011;2578;51.622;7.046;2023-11-19T04:47:16;22.27;;;13.00;;
5117;SDS011;2578;51.622;7.046;2023-11-19T04:49:41;27.03;;;15.03;;
5117;SDS011;2578;51.622;7.046;2023-11-19T04:52:10;26.83;;;16.20;;
5117;SDS011;2578;51.622;7.046;2023-11-19T04:54:42;22.17;;;13.47;;
5117;SDS011;2578;51.622;7.046;2023-11-19T04:57:08;21.60;;;12.40;;
5117;SDS011;2578;51.622;7.046;2023-11-19T04:59:37;26.00;;;14.10;;
5117;SDS011;2578;51.622;7.046;2023-11-19T05:02:03;36.13;;;15.30;;
5117;SDS011;2578;51.622;7.046;2023-11-19T05:04:30;27.30;;;15.10;;
5117;SDS011;2578;51.622;7.046;2023-11-19T05:06:56;25.77;;;14.40;;
5117;SDS011;2578;51.622;7.046;2023-11-19T05:09:21;23.67;;;14.67;;
5117;SDS011;2578;51.622;7.046;2023-11-19T05:11:47;25.80;;;16.87;;
5117;SDS011;2578;51.622;7.046;2023-11-19T05:14:13;23.73;;;14.70;;
5117;SDS011;2578;51.622;7.046;2023-11-19T05:16:39;23.17;;;13.90;;
5117;SDS011;2578;51.622;7.046;2023-11-19T05:19:05;29.87;;;15.03;;
5117;SDS011;2578;51.622;7.046;2023-11-19T05:21:31;29.60;;;16.70;;
5117;SDS011;2578;51.622;7.046;2023-11-19T05:23:56;28.07;;;16.30;;
5117;SDS011;2578;51.622;7.046;2023-11-19T05:26:22;23.13;;;14.20;;
5117;SDS011;2578;51.622;7.046;2023-11-19T05:28:49;31.10;;;16.50;;
5117;SDS011;2578;51.622;7.046;2023-11-19T05:31:15;23.27;;;14.50;;
5117;SDS011;2578;51.622;7.046;2023-11-19T05:33:42;26.10;;;17.00;;
5117;SDS011;2578;51.622;7.046;2023-11-19T05:36:08;23.60;;;15.60;;
5117;SDS011;2578;51.622;7.046;2023-11-19T05:38:35;26.17;;;16.43;;
5117;SDS011;2578;51.622;7.046;2023-11-19T05:41:01;28.40;;;16.00;;
5117;SDS011;2578;51.622;7.046;2023-11-19T05:43:27;25.73;;;17.90;;
5117;SDS011;2578;51.622;7.046;2023-11-19T05:45:53;27.40;;;16.57;;
5117;SDS011;2578;51.622;7.046;2023-11-19T05:48:18;56.23;;;19.53;;
5117;SDS011;2578;51.622;7.046;2023-11-19T05:50:44;27.07;;;16.23;;
5117;SDS011;2578;51.622;7.046;2023-11-19T05:53:10;35.60;;;16.57;;
5117;SDS011;2578;51.622;7.046;2023-11-19T05:55:38;24.97;;;16.17;;
5117;SDS011;2578;51.622;7.046;2023-11-19T05:58:27;27.43;;;17.77;;
5117;SDS011;2578;51.622;7.046;2023-11-19T06:00:57;26.67;;;18.33;;
5117;SDS011;2578;51.622;7.046;2023-11-19T06:03:25;26.93;;;18.33;;
5117;SDS011;2578;51.622;7.046;2023-11-19T06:05:51;35.13;;;17.90;;
5117;SDS011;2578;51.622;7.046;2023-11-19T06:08:17;66.97;;;19.53;;
5117;SDS011;2578;51.622;7.046;2023-11-19T06:10:45;37.90;;;18.00;;
5117;SDS011;2578;51.622;7.046;2023-11-19T06:13:15;24.20;;;16.50;;
5117;SDS011;2578;51.622;7.046;2023-11-19T06:15:41;23.97;;;16.20;;
5117;SDS011;2578;51.622;7.046;2023-11-19T06:18:07;25.00;;;15.70;;
5117;SDS011;2578;51.622;7.046;2023-11-19T06:20:33;24.50;;;16.63;;
5117;SDS011;2578;51.622;7.046;2023-11-19T06:22:59;22.20;;;14.60;;
5117;SDS011;2578;51.622;7.046;2023-11-19T06:25:25;23.30;;;15.97;;
5117;SDS011;2578;51.622;7.046;2023-11-19T06:27:51;23.20;;;15.27;;
5117;SDS011;2578;51.622;7.046;2023-11-19T06:30:17;23.80;;;15.00;;
5117;SDS011;2578;51.622;7.046;2023-11-19T06:32:43;22.30;;;14.63;;
5117;SDS011;2578;51.622;7.046;2023-11-19T06:35:09;23.30;;;16.30;;
5117;SDS011;2578;51.622;7.046;2023-11-19T06:37:35;22.77;;;15.50;;
5117;SDS011;2578;51.622;7.046;2023-11-19T06:40:03;29.50;;;17.60;;
5117;SDS011;2578;51.622;7.046;2023-11-19T06:42:30;23.70;;;16.00;;
5117;SDS011;2578;51.622;7.046;2023-11-19T06:44:56;34.10;;;20.20;;
5117;SDS011;2578;51.622;7.046;2023-11-19T06:47:22;32.27;;;19.00;;
5117;SDS011;2578;51.622;7.046;2023-11-19T06:49:48;49.47;;;19.97;;
5117;SDS011;2578;51.622;7.046;2023-11-19T06:52:14;33.53;;;20.97;;
5117;SDS011;2578;51.622;7.046;2023-11-19T06:54:41;27.03;;;18.87;;
5117;SDS011;2578;51.622;7.046;2023-11-19T06:57:07;26.60;;;18.20;;
5117;SDS011;2578;51.622;7.046;2023-11-19T06:59:34;25.00;;;18.13;;
5117;SDS011;2578;51.622;7.046;2023-11-19T07:01:59;57.80;;;20.77;;
5117;SDS011;2578;51.622;7.046;2023-11-19T07:04:25;26.30;;;17.20;;
5117;SDS011;2578;51.622;7.046;2023-11-19T07:06:51;26.87;;;17.10;;
5117;SDS011;2578;51.622;7.046;2023-11-19T07:09:18;24.73;;;19.07;;
5117;SDS011;2578;51.622;7.046;2023-11-19T07:11:43;24.87;;;19.30;;
5117;SDS011;2578;51.622;7.046;2023-11-19T07:14:10;26.60;;;20.37;;
5117;SDS011;2578;51.622;7.046;2023-11-19T07:16:37;24.63;;;19.17;;
5117;SDS011;2578;51.622;7.046;2023-11-19T07:19:04;25.20;;;19.43;;
5117;SDS011;2578;51.622;7.046;2023-11-19T07:21:30;24.67;;;19.30;;
5117;SDS011;2578;51.622;7.046;2023-11-19T07:23:57;25.67;;;19.60;;
5117;SDS011;2578;51.622;7.046;2023-11-19T07:26:23;33.60;;;18.83;;
5117;SDS011;2578;51.622;7.046;2023-11-19T07:28:49;44.97;;;20.83;;
5117;SDS011;2578;51.622;7.046;2023-11-19T07:31:15;22.87;;;16.80;;
5117;SDS011;2578;51.622;7.046;2023-11-19T07:33:43;24.97;;;18.13;;
5117;SDS011;2578;51.622;7.046;2023-11-19T07:36:09;24.27;;;18.43;;
5117;SDS011;2578;51.622;7.046;2023-11-19T07:38:35;26.57;;;18.77;;
5117;SDS011;2578;51.622;7.046;2023-11-19T07:41:01;23.37;;;17.27;;
5117;SDS011;2578;51.622;7.046;2023-11-19T07:43:27;22.90;;;16.40;;
5117;SDS011;2578;51.622;7.046;2023-11-19T07:45:53;27.93;;;16.70;;
5117;SDS011;2578;51.622;7.046;2023-11-19T07:48:19;29.30;;;18.90;;
5117;SDS011;2578;51.622;7.046;2023-11-19T07:50:48;27.20;;;19.70;;
5117;SDS011;2578;51.622;7.046;2023-11-19T07:53:17;33.93;;;21.00;;
5117;SDS011;2578;51.622;7.046;2023-11-19T07:55:43;26.37;;;20.70;;
5117;SDS011;2578;51.622;7.046;2023-11-19T07:58:09;24.60;;;19.30;;
5117;SDS011;2578;51.622;7.046;2023-11-19T08:00:38;25.50;;;19.70;;
5117;SDS011;2578;51.622;7.046;2023-11-19T08:03:04;27.17;;;20.40;;
5117;SDS011;2578;51.622;7.046;2023-11-19T08:05:30;51.87;;;24.33;;
5117;SDS011;2578;51.622;7.046;2023-11-19T08:07:56;30.70;;;22.00;;
5117;SDS011;2578;51.622;7.046;2023-11-19T08:10:23;26.17;;;20.80;;
5117;SDS011;2578;51.622;7.046;2023-11-19T08:12:49;28.27;;;22.20;;
5117;SDS011;2578;51.622;7.046;2023-11-19T08:15:14;26.43;;;21.53;;
5117;SDS011;2578;51.622;7.046;2023-11-19T08:17:41;31.83;;;23.63;;
5117;SDS011;2578;51.622;7.046;2023-11-19T08:20:07;35.53;;;22.90;;
5117;SDS011;2578;51.622;7.046;2023-11-19T08:22:37;35.70;;;25.20;;
5117;SDS011;2578;51.622;7.046;2023-11-19T08:25:04;28.23;;;22.00;;
5117;SDS011;2578;51.622;7.046;2023-11-19T08:27:30;32.90;;;23.83;;
5117;SDS011;2578;51.622;7.046;2023-11-19T08:29:56;32.30;;;22.20;;
5117;SDS011;2578;51.622;7.046;2023-11-19T08:32:22;27.30;;;22.27;;
5117;SDS011;2578;51.622;7.046;2023-11-19T08:34:48;34.83;;;23.77;;
5117;SDS011;2578;51.622;7.046;2023-11-19T08:37:14;64.97;;;27.03;;
5117;SDS011;2578;51.622;7.046;2023-11-19T08:39:40;27.43;;;23.37;;
5117;SDS011;2578;51.622;7.046;2023-11-19T08:42:07;27.60;;;23.30;;
5117;SDS011;2578;51.622;7.046;2023-11-19T08:44:32;34.63;;;24.47;;
5117;SDS011;2578;51.622;7.046;2023-11-19T08:46:59;29.70;;;23.40;;
5117;SDS011;2578;51.622;7.046;2023-11-19T08:49:24;28.00;;;23.70;;
5117;SDS011;2578;51.622;7.046;2023-11-19T08:51:50;29.50;;;23.20;;
5117;SDS011;2578;51.622;7.046;2023-11-19T08:54:16;32.00;;;23.53;;
5117;SDS011;2578;51.622;7.046;2023-11-19T08:56:42;26.60;;;22.53;;
5117;SDS011;2578;51.622;7.046;2023-11-19T08:59:07;27.63;;;22.33;;
5117;SDS011;2578;51.622;7.046;2023-11-19T09:01:33;33.20;;;24.30;;
5117;SDS011;2578;51.622;7.046;2023-11-19T09:03:59;36.37;;;26.93;;
5117;SDS011;2578;51.622;7.046;2023-11-19T09:06:25;43.53;;;25.37;;
5117;SDS011;2578;51.622;7.046;2023-11-19T09:08:50;41.00;;;23.77;;
5117;SDS011;2578;51.622;7.046;2023-11-19T09:11:16;28.77;;;23.10;;
5117;SDS011;2578;51.622;7.046;2023-11-19T09:13:42;32.23;;;23.00;;
5117;SDS011;2578;51.622;7.046;2023-11-19T09:16:07;35.27;;;22.83;;
5117;SDS011;2578;51.622;7.046;2023-11-19T09:18:34;51.60;;;23.23;;
5117;SDS011;2578;51.622;7.046;2023-11-19T09:21:00;31.40;;;23.20;;
5117;SDS011;2578;51.622;7.046;2023-11-19T09:23:25;26.77;;;21.23;;
5117;SDS011;2578;51.622;7.046;2023-11-19T09:25:52;26.10;;;20.33;;
5117;SDS011;2578;51.622;7.046;2023-11-19T09:28:18;29.93;;;21.63;;
5117;SDS011;2578;51.622;7.046;2023-11-19T09:30:44;28.27;;;22.13;;
5117;SDS011;2578;51.622;7.046;2023-11-19T09:33:09;28.20;;;21.33;;
5117;SDS011;2578;51.622;7.046;2023-11-19T09:35:35;43.27;;;22.27;;
5117;SDS011;2578;51.622;7.046;2023-11-19T09:38:01;59.70;;;23.40;;
5117;SDS011;2578;51.622;7.046;2023-11-19T09:40:27;37.63;;;24.90;;
5117;SDS011;2578;51.622;7.046;2023-11-19T09:42:53;29.87;;;24.00;;
5117;SDS011;2578;51.622;7.046;2023-11-19T09:45:20;32.70;;;24.90;;
5117;SDS011;2578;51.622;7.046;2023-11-19T09:47:46;36.93;;;23.77;;
5117;SDS011;2578;51.622;7.046;2023-11-19T09:50:21;28.57;;;21.13;;
5117;SDS011;2578;51.622;7.046;2023-11-19T09:52:47;25.97;;;19.13;;
5117;SDS011;2578;51.622;7.046;2023-11-19T09:55:13;26.80;;;20.50;;
5117;SDS011;2578;51.622;7.046;2023-11-19T09:57:39;57.13;;;21.83;;
5117;SDS011;2578;51.622;7.046;2023-11-19T10:00:09;25.67;;;19.67;;
5117;SDS011;2578;51.622;7.046;2023-11-19T10:02:36;34.53;;;21.70;;
5117;SDS011;2578;51.622;7.046;2023-11-19T10:05:04;26.70;;;20.27;;
5117;SDS011;2578;51.622;7.046;2023-11-19T10:07:32;27.27;;;20.30;;
5117;SDS011;2578;51.622;7.046;2023-11-19T10:10:01;28.47;;;20.53;;
5117;SDS011;2578;51.622;7.046;2023-11-19T10:12:29;38.60;;;22.27;;
5117;SDS011;2578;51.622;7.046;2023-11-19T10:14:56;27.60;;;20.07;;
5117;SDS011;2578;51.622;7.046;2023-11-19T10:17:27;25.17;;;19.40;;
5117;SDS011;2578;51.622;7.046;2023-11-19T10:19:54;25.97;;;20.77;;
5117;SDS011;2578;51.622;7.046;2023-11-19T10:22:22;26.50;;;21.07;;
5117;SDS011;2578;51.622;7.046;2023-11-19T10:24:49;25.00;;;19.33;;
5117;SDS011;2578;51.622;7.046;2023-11-19T10:27:15;24.90;;;19.47;;
5117;SDS011;2578;51.622;7.046;2023-11-19T10:29:43;27.20;;;20.87;;
5117;SDS011;2578;51.622;7.046;2023-11-19T10:32:12;32.07;;;21.57;;
5117;SDS011;2578;51.622;7.046;2023-11-19T10:34:40;30.27;;;20.20;;
5117;SDS011;2578;51.622;7.046;2023-11-19T10:37:06;28.27;;;20.27;;
5117;SDS011;2578;51.622;7.046;2023-11-19T10:39:51;27.70;;;20.27;;
5117;SDS011;2578;51.622;7.046;2023-11-19T10:42:20;26.63;;;21.23;;
5117;SDS011;2578;51.622;7.046;2023-11-19T10:44:46;34.33;;;25.53;;
5117;SDS011;2578;51.622;7.046;2023-11-19T10:47:13;24.87;;;20.37;;
5117;SDS011;2578;51.622;7.046;2023-11-19T10:49:42;24.93;;;20.30;;
5117;SDS011;2578;51.622;7.046;2023-11-19T10:52:08;41.17;;;22.60;;
5117;SDS011;2578;51.622;7.046;2023-11-19T10:54:34;28.10;;;22.63;;
5117;SDS011;2578;51.622;7.046;2023-11-19T10:57:01;24.90;;;21.20;;
5117;SDS011;2578;51.622;7.046;2023-11-19T10:59:28;31.53;;;21.60;;
5117;SDS011;2578;51.622;7.046;2023-11-19T11:01:56;29.20;;;22.10;;
5117;SDS011;2578;51.622;7.046;2023-11-19T11:04:25;30.73;;;24.63;;
5117;SDS011;2578;51.622;7.046;2023-11-19T11:06:54;27.17;;;23.30;;
5117;SDS011;2578;51.622;7.046;2023-11-19T11:09:21;25.60;;;21.70;;
5117;SDS011;2578;51.622;7.046;2023-11-19T11:11:48;28.63;;;22.50;;
5117;SDS011;2578;51.622;7.046;2023-11-19T11:14:17;56.63;;;23.23;;
5117;SDS011;2578;51.622;7.046;2023-11-19T11:16:46;26.33;;;23.30;;
5117;SDS011;2578;51.622;7.046;2023-11-19T11:19:13;29.80;;;22.60;;
5117;SDS011;2578;51.622;7.046;2023-11-19T11:21:42;24.93;;;22.23;;
5117;SDS011;2578;51.622;7.046;2023-11-19T11:26:52;26.43;;;21.40;;
5117;SDS011;2578;51.622;7.046;2023-11-19T11:29:26;30.50;;;21.73;;
5117;SDS011;2578;51.622;7.046;2023-11-19T11:35:04;32.40;;;23.00;;
5117;SDS011;2578;51.622;7.046;2023-11-19T11:37:44;40.90;;;23.83;;
5117;SDS011;2578;51.622;7.046;2023-11-19T11:40:15;25.50;;;21.43;;
5117;SDS011;2578;51.622;7.046;2023-11-19T11:42:45;26.63;;;20.40;;
5117;SDS011;2578;51.622;7.046;2023-11-19T11:45:11;27.87;;;21.40;;
5117;SDS011;2578;51.622;7.046;2023-11-19T11:50:15;31.50;;;25.33;;
5117;SDS011;2578;51.622;7.046;2023-11-19T11:53:13;31.13;;;21.90;;
5117;SDS011;2578;51.622;7.046;2023-11-19T11:58:13;28.83;;;23.03;;
5117;SDS011;2578;51.622;7.046;2023-11-19T12:00:42;28.27;;;23.40;;
5117;SDS011;2578;51.622;7.046;2023-11-19T12:03:08;28.97;;;23.27;;
5117;SDS011;2578;51.622;7.046;2023-11-19T12:05:43;29.47;;;24.40;;
5117;SDS011;2578;51.622;7.046;2023-11-19T12:08:10;34.63;;;27.60;;
5117;SDS011;2578;51.622;7.046;2023-11-19T12:10:47;27.57;;;24.20;;
5117;SDS011;2578;51.622;7.046;2023-11-19T12:13:14;30.27;;;26.30;;
5117;SDS011;2578;51.622;7.046;2023-11-19T12:18:22;29.03;;;25.90;;
5117;SDS011;2578;51.622;7.046;2023-11-19T12:20:48;26.70;;;23.73;;
5117;SDS011;2578;51.622;7.046;2023-11-19T12:23:14;30.70;;;24.03;;
5117;SDS011;2578;51.622;7.046;2023-11-19T12:25:40;26.77;;;23.80;;
5117;SDS011;2578;51.622;7.046;2023-11-19T12:28:11;25.97;;;23.00;;
5117;SDS011;2578;51.622;7.046;2023-11-19T12:30:38;26.20;;;22.90;;
5117;SDS011;2578;51.622;7.046;2023-11-19T12:33:07;27.73;;;24.83;;
5117;SDS011;2578;51.622;7.046;2023-11-19T12:35:38;30.63;;;25.20;;
5117;SDS011;2578;51.622;7.046;2023-11-19T12:38:08;30.33;;;23.43;;
5117;SDS011;2578;51.622;7.046;2023-11-19T12:40:43;28.63;;;24.07;;
5117;SDS011;2578;51.622;7.046;2023-11-19T12:43:09;26.80;;;22.80;;
5117;SDS011;2578;51.622;7.046;2023-11-19T12:45:35;35.13;;;21.33;;
5117;SDS011;2578;51.622;7.046;2023-11-19T12:48:04;29.10;;;20.20;;
5117;SDS011;2578;51.622;7.046;2023-11-19T12:50:49;22.80;;;19.00;;
5117;SDS011;2578;51.622;7.046;2023-11-19T12:53:22;30.10;;;20.40;;
5117;SDS011;2578;51.622;7.046;2023-11-19T12:55:50;22.33;;;18.90;;
5117;SDS011;2578;51.622;7.046;2023-11-19T13:01:04;20.10;;;15.73;;
5117;SDS011;2578;51.622;7.046;2023-11-19T13:03:34;20.30;;;15.03;;
5117;SDS011;2578;51.622;7.046;2023-11-19T13:06:05;18.37;;;13.70;;
5117;SDS011;2578;51.622;7.046;2023-11-19T13:11:10;27.83;;;16.57;;
5117;SDS011;2578;51.622;7.046;2023-11-19T13:16:23;30.67;;;14.73;;
5117;SDS011;2578;51.622;7.046;2023-11-19T13:18:49;29.63;;;15.30;;
5117;SDS011;2578;51.622;7.046;2023-11-19T13:21:14;21.27;;;15.90;;
5117;SDS011;2578;51.622;7.046;2023-11-19T13:23:40;31.00;;;14.87;;
5117;SDS011;2578;51.622;7.046;2023-11-19T13:26:06;22.90;;;16.43;;
5117;SDS011;2578;51.622;7.046;2023-11-19T13:28:32;53.80;;;18.80;;
5117;SDS011;2578;51.622;7.046;2023-11-19T13:30:58;22.53;;;17.87;;
5117;SDS011;2578;51.622;7.046;2023-11-19T13:33:23;22.53;;;19.60;;
5117;SDS011;2578;51.622;7.046;2023-11-19T13:35:49;23.70;;;19.90;;
5117;SDS011;2578;51.622;7.046;2023-11-19T13:38:14;26.60;;;20.63;;
5117;SDS011;2578;51.622;7.046;2023-11-19T13:40:40;24.70;;;20.60;;
5117;SDS011;2578;51.622;7.046;2023-11-19T13:43:06;29.13;;;21.03;;
5117;SDS011;2578;51.622;7.046;2023-11-19T13:45:32;24.93;;;22.23;;
5117;SDS011;2578;51.622;7.046;2023-11-19T13:47:58;33.50;;;24.13;;
5117;SDS011;2578;51.622;7.046;2023-11-19T13:50:23;24.97;;;21.53;;
5117;SDS011;2578;51.622;7.046;2023-11-19T13:52:49;27.03;;;21.83;;
5117;SDS011;2578;51.622;7.046;2023-11-19T13:55:15;24.77;;;21.13;;
5117;SDS011;2578;51.622;7.046;2023-11-19T13:57:41;28.90;;;21.83;;
5117;SDS011;2578;51.622;7.046;2023-11-19T14:00:07;32.13;;;25.13;;
5117;SDS011;2578;51.622;7.046;2023-11-19T14:02:48;28.23;;;24.10;;
5117;SDS011;2578;51.622;7.046;2023-11-19T14:05:15;39.03;;;26.13;;
5117;SDS011;2578;51.622;7.046;2023-11-19T14:07:44;30.50;;;25.10;;
5117;SDS011;2578;51.622;7.046;2023-11-19T14:10:13;32.90;;;24.67;;
5117;SDS011;2578;51.622;7.046;2023-11-19T14:12:39;28.00;;;22.90;;
5117;SDS011;2578;51.622;7.046;2023-11-19T14:15:05;25.53;;;22.33;;
5117;SDS011;2578;51.622;7.046;2023-11-19T14:17:32;25.70;;;22.73;;
5117;SDS011;2578;51.622;7.046;2023-11-19T14:20:02;34.20;;;22.77;;
5117;SDS011;2578;51.622;7.046;2023-11-19T14:22:37;24.80;;;20.80;;
5117;SDS011;2578;51.622;7.046;2023-11-19T14:25:06;27.40;;;21.47;;
5117;SDS011;2578;51.622;7.046;2023-11-19T14:27:36;31.80;;;21.23;;
5117;SDS011;2578;51.622;7.046;2023-11-19T14:30:05;26.10;;;22.17;;
5117;SDS011;2578;51.622;7.046;2023-11-19T14:32:31;28.27;;;25.00;;
5117;SDS011;2578;51.622;7.046;2023-11-19T14:34:58;25.10;;;21.57;;
5117;SDS011;2578;51.622;7.046;2023-11-19T14:37:23;22.40;;;19.10;;
5117;SDS011;2578;51.622;7.046;2023-11-19T14:39:49;23.33;;;20.30;;
5117;SDS011;2578;51.622;7.046;2023-11-19T14:42:16;23.77;;;16.50;;
5117;SDS011;2578;51.622;7.046;2023-11-19T14:44:42;20.27;;;15.00;;
5117;SDS011;2578;51.622;7.046;2023-11-19T14:47:08;24.80;;;19.50;;
5117;SDS011;2578;51.622;7.046;2023-11-19T14:49:35;21.70;;;17.07;;
5117;SDS011;2578;51.622;7.046;2023-11-19T14:52:02;25.70;;;17.40;;
5117;SDS011;2578;51.622;7.046;2023-11-19T14:54:28;20.40;;;15.57;;
5117;SDS011;2578;51.622;7.046;2023-11-19T14:56:54;20.87;;;15.90;;
5117;SDS011;2578;51.622;7.046;2023-11-19T14:59:20;41.03;;;17.30;;
5117;SDS011;2578;51.622;7.046;2023-11-19T15:01:46;37.57;;;18.80;;
5117;SDS011;2578;51.622;7.046;2023-11-19T15:04:12;26.30;;;15.07;;
5117;SDS011;2578;51.622;7.046;2023-11-19T15:06:38;21.50;;;16.50;;
5117;SDS011;2578;51.622;7.046;2023-11-19T15:09:04;22.00;;;16.80;;